To NAV CANADA Home Page Login to a new session Search on AWWS site Feedback and Comments Disclaimer Vers la page française équivalente Tips FAQ What's new on the site To the Forecasts and Observations / NOTAM section To "File a Flight Plan" website Publications and other links Update of the User's profile FIC Telephone Numbers My Weather Data Folder Route Weather Data Regional Weather Data Local Weather Data To the Forecasts and Observations / NOTAM section
Request Generated 09/26/2017 at 05:37:43 UTC . Weather information available at that time is displayed.

METAR/TAF

FREDERICTON INTL/NB    (show WxCam)

METAR CYFC 260500Z AUTO 21008KT 9SM CLR 19/17 A2995 RMK SLP143
DENSITY ALT 400FT=
METAR CYFC 260400Z AUTO 19009KT 9SM CLR 19/17 A2996 RMK SLP145
DENSITY ALT 400FT=
METAR CYFC 260300Z AUTO 20010KT 9SM CLR 19/17 A2997 RMK SLP151
DENSITY ALT 500FT=

TAF CYFC 252338Z 2600/2612 18008KT P6SM SKC
BECMG 2601/2603 VRB03KT
RMK FCST BASED ON AUTO OBS. NXT FCST BY 260600Z=
Your time UTC time
Weather data provided by Environment Canada and NAV CANADA